Time;durP1;ratioP1;P1;durP2;ratioP2;P2;SDS_P1;SDS_P2;PMS_P1;PMS_P2;Temp;Humidity;BMP_temperature;BMP_pressure;BME280_temperature;BME280_humidity;BME280_pressure;Samples;Min_cycle;Max_cycle;Signal;HPM_P1;HPM_P2
2021/07/26 00:01:17;;;;;;;3.57;2.23;;;;;;;;;;5098758;28;20207;-66
2021/07/26 00:03:45;;;;;;;4.30;2.53;;;;;;;;;;5091853;28;20208;-66
2021/07/26 00:06:14;;;;;;;2.73;1.80;;;;;;;;;;5091900;28;20205;-66
2021/07/26 00:08:42;;;;;;;4.53;2.47;;;;;;;;;;5083063;28;20210;-67
2021/07/26 00:11:11;;;;;;;2.37;2.13;;;;;;;;;;5078838;28;20205;-66
2021/07/26 00:13:39;;;;;;;2.90;1.93;;;;;;;;;;5096168;28;20563;-67
2021/07/26 00:16:08;;;;;;;3.30;2.63;;;;;;;;;;5096668;28;20231;-66
2021/07/26 00:18:36;;;;;;;3.17;2.00;;;;;;;;;;5099143;28;20577;-66
2021/07/26 00:21:04;;;;;;;4.87;2.33;;;;;;;;;;5085995;28;20262;-66
2021/07/26 00:23:33;;;;;;;3.83;2.13;;;;;;;;;;5087414;28;20203;-66
2021/07/26 00:26:01;;;;;;;8.03;2.87;;;;;;;;;;5093776;28;20604;-66
2021/07/26 00:28:29;;;;;;;3.33;2.90;;;;;;;;;;5089380;28;20204;-67
2021/07/26 00:30:57;;;;;;;4.00;2.60;;;;;;;;;;5089372;28;20569;-66
2021/07/26 00:34:05;;;;;;;2.40;2.20;;;;;;;;;;5095134;28;20239;-66
2021/07/26 00:36:33;;;;;;;2.63;2.40;;;;;;;;;;5028596;28;20298;-66
2021/07/26 00:39:02;;;;;;;3.20;2.60;;;;;;;;;;5021619;28;20209;-66
2021/07/26 00:41:30;;;;;;;3.13;2.23;;;;;;;;;;5052530;28;20241;-66
2021/07/26 00:43:58;;;;;;;3.20;2.03;;;;;;;;;;5095954;28;20199;-66
2021/07/26 00:46:27;;;;;;;3.53;2.37;;;;;;;;;;5087787;28;20204;-66
2021/07/26 00:48:55;;;;;;;4.43;2.97;;;;;;;;;;5081029;28;20206;-66
2021/07/26 00:51:23;;;;;;;3.77;2.07;;;;;;;;;;5088526;28;20218;-66
2021/07/26 00:53:51;;;;;;;3.47;2.60;;;;;;;;;;5080527;28;20227;-66
2021/07/26 00:56:20;;;;;;;3.20;2.90;;;;;;;;;;5084337;28;20227;-65
2021/07/26 00:58:49;;;;;;;4.07;2.93;;;;;;;;;;5081974;28;20202;-66
2021/07/26 01:01:17;;;;;;;4.87;2.60;;;;;;;;;;5077189;28;20571;-66
2021/07/26 01:03:45;;;;;;;3.33;2.70;;;;;;;;;;5094621;28;20571;-64
2021/07/26 01:06:14;;;;;;;2.67;2.47;;;;;;;;;;5096948;28;20278;-66
2021/07/26 01:08:42;;;;;;;3.97;2.33;;;;;;;;;;5079584;28;20209;-66
2021/07/26 01:11:10;;;;;;;4.47;2.10;;;;;;;;;;5092125;28;20199;-65
2021/07/26 01:13:39;;;;;;;2.57;2.37;;;;;;;;;;5097444;28;20647;-66
2021/07/26 01:16:07;;;;;;;2.57;2.37;;;;;;;;;;5090502;28;20255;-66
2021/07/26 01:18:35;;;;;;;3.43;2.70;;;;;;;;;;5090719;28;20201;-66
2021/07/26 01:21:05;;;;;;;2.80;2.50;;;;;;;;;;5096148;28;20197;-66
2021/07/26 01:23:33;;;;;;;2.27;2.07;;;;;;;;;;5091643;28;20208;-66
2021/07/26 01:26:02;;;;;;;2.50;2.30;;;;;;;;;;5087084;28;20233;-66
2021/07/26 01:28:32;;;;;;;4.23;2.60;;;;;;;;;;5096964;28;20208;-67
2021/07/26 01:31:01;;;;;;;3.60;3.00;;;;;;;;;;5082899;28;20230;-66
2021/07/26 01:33:28;;;;;;;4.13;2.43;;;;;;;;;;5097745;28;20207;-67
2021/07/26 01:35:56;;;;;;;4.73;2.70;;;;;;;;;;5096840;28;20206;-66
2021/07/26 01:38:26;;;;;;;6.10;2.33;;;;;;;;;;5085776;28;20210;-66
2021/07/26 01:41:00;;;;;;;4.30;2.70;;;;;;;;;;5095726;28;20233;-66
2021/07/26 01:43:32;;;;;;;3.77;2.20;;;;;;;;;;5098051;28;20214;-66
2021/07/26 01:46:04;;;;;;;3.80;2.90;;;;;;;;;;5096041;28;20707;-66
2021/07/26 01:48:36;;;;;;;5.10;2.60;;;;;;;;;;5085505;28;20215;-66
2021/07/26 01:51:07;;;;;;;2.83;2.33;;;;;;;;;;5092589;28;20657;-66
2021/07/26 01:53:37;;;;;;;2.83;2.63;;;;;;;;;;5088883;28;20212;-66
2021/07/26 01:56:05;;;;;;;3.33;2.17;;;;;;;;;;5089064;28;20211;-66
2021/07/26 01:58:33;;;;;;;4.07;2.40;;;;;;;;;;5096175;28;20662;-66
2021/07/26 02:01:01;;;;;;;4.07;2.53;;;;;;;;;;5084358;28;20201;-66
2021/07/26 02:03:30;;;;;;;3.57;2.60;;;;;;;;;;5087591;28;20303;-66
2021/07/26 02:05:58;;;;;;;2.63;2.43;;;;;;;;;;5084751;28;20206;-66
2021/07/26 02:08:26;;;;;;;4.10;2.40;;;;;;;;;;5088825;28;20203;-66
2021/07/26 02:10:55;;;;;;;4.20;2.70;;;;;;;;;;5087440;28;20215;-66
2021/07/26 02:13:23;;;;;;;3.27;2.53;;;;;;;;;;5090250;28;20645;-66
2021/07/26 02:15:51;;;;;;;4.63;2.53;;;;;;;;;;5095545;28;20247;-66
2021/07/26 02:18:19;;;;;;;2.97;2.20;;;;;;;;;;5100102;28;20224;-66
2021/07/26 02:20:47;;;;;;;3.47;3.03;;;;;;;;;;5092627;28;20693;-66
2021/07/26 02:23:15;;;;;;;3.77;3.20;;;;;;;;;;5087694;28;20233;-66
2021/07/26 02:25:43;;;;;;;3.30;2.43;;;;;;;;;;5101470;28;20198;-66
2021/07/26 02:28:12;;;;;;;3.73;2.17;;;;;;;;;;5087351;28;20518;-67
2021/07/26 02:30:40;;;;;;;3.80;2.63;;;;;;;;;;5095224;28;20204;-66
2021/07/26 02:33:08;;;;;;;2.83;2.43;;;;;;;;;;5097216;28;20588;-66
2021/07/26 02:35:36;;;;;;;2.87;2.50;;;;;;;;;;5101342;28;20230;-67
2021/07/26 02:38:04;;;;;;;2.47;2.07;;;;;;;;;;5098654;28;20199;-66
2021/07/26 02:40:32;;;;;;;2.83;2.30;;;;;;;;;;5099997;28;20237;-66
2021/07/26 02:43:00;;;;;;;3.43;2.30;;;;;;;;;;5099719;28;20237;-66
2021/07/26 02:45:29;;;;;;;4.00;2.57;;;;;;;;;;5101236;28;20200;-66
2021/07/26 02:47:57;;;;;;;4.13;2.77;;;;;;;;;;5089179;28;20203;-66
2021/07/26 02:50:26;;;;;;;2.93;2.20;;;;;;;;;;5097465;28;20209;-66
2021/07/26 02:52:54;;;;;;;3.30;2.40;;;;;;;;;;5090896;28;20306;-66
2021/07/26 02:55:22;;;;;;;4.20;2.40;;;;;;;;;;5098003;28;20309;-66
2021/07/26 02:57:53;;;;;;;2.67;2.47;;;;;;;;;;5086977;28;20211;-66
2021/07/26 03:00:21;;;;;;;4.07;2.13;;;;;;;;;;5080133;28;20200;-66
2021/07/26 03:02:51;;;;;;;2.40;2.20;;;;;;;;;;5088118;28;20226;-66
2021/07/26 03:05:19;;;;;;;3.53;2.50;;;;;;;;;;5102132;28;20281;-67
2021/07/26 03:07:47;;;;;;;4.07;2.77;;;;;;;;;;5088160;28;20197;-66
2021/07/26 03:10:15;;;;;;;4.20;2.70;;;;;;;;;;5100466;28;20206;-66
2021/07/26 03:12:42;;;;;;;2.80;2.27;;;;;;;;;;5094061;28;20233;-66
2021/07/26 03:15:11;;;;;;;4.50;2.47;;;;;;;;;;5094792;28;20593;-66
2021/07/26 03:17:39;;;;;;;3.30;2.83;;;;;;;;;;5099100;28;20205;-66
2021/07/26 03:20:09;;;;;;;9.77;3.13;;;;;;;;;;5100037;28;20580;-66
2021/07/26 03:22:53;;;;;;;3.80;2.70;;;;;;;;;;5080007;28;20226;-66
2021/07/26 03:25:21;;;;;;;3.90;2.57;;;;;;;;;;5092017;28;20203;-66
2021/07/26 03:27:49;;;;;;;2.67;2.47;;;;;;;;;;5093185;28;20289;-66
2021/07/26 03:30:17;;;;;;;6.90;3.43;;;;;;;;;;5091832;28;20208;-66
2021/07/26 03:32:46;;;;;;;3.53;2.40;;;;;;;;;;5092541;28;20702;-66
2021/07/26 03:35:16;;;;;;;6.27;2.77;;;;;;;;;;5097600;28;20668;-66
2021/07/26 03:37:44;;;;;;;4.20;2.47;;;;;;;;;;5100066;28;20202;-66
2021/07/26 03:40:12;;;;;;;4.23;3.13;;;;;;;;;;5095400;28;20233;-66
2021/07/26 03:42:41;;;;;;;5.23;2.90;;;;;;;;;;5093092;28;20227;-66
2021/07/26 03:45:10;;;;;;;4.63;2.73;;;;;;;;;;5094119;28;20199;-66
2021/07/26 03:47:39;;;;;;;3.50;2.60;;;;;;;;;;5090311;28;20222;-66
2021/07/26 03:50:08;;;;;;;4.40;2.90;;;;;;;;;;5094129;28;20207;-66
2021/07/26 03:52:44;;;;;;;3.50;2.97;;;;;;;;;;5084509;28;20222;-66
2021/07/26 03:55:13;;;;;;;7.97;3.40;;;;;;;;;;5099437;28;20596;-66
2021/07/26 03:57:41;;;;;;;2.63;2.40;;;;;;;;;;5083235;28;20233;-66
2021/07/26 04:00:11;;;;;;;2.97;2.53;;;;;;;;;;5092269;28;20292;-66
2021/07/26 04:02:39;;;;;;;3.97;3.40;;;;;;;;;;5087107;28;20310;-66
2021/07/26 04:05:12;;;;;;;3.33;2.93;;;;;;;;;;5091915;28;20202;-66
2021/07/26 04:07:43;;;;;;;5.17;2.87;;;;;;;;;;5089779;28;20194;-66
2021/07/26 04:10:13;;;;;;;2.80;2.50;;;;;;;;;;5081024;28;20284;-66
2021/07/26 04:12:44;;;;;;;5.80;3.43;;;;;;;;;;5092216;28;20224;-66
2021/07/26 04:15:12;;;;;;;4.43;2.80;;;;;;;;;;5088441;28;20239;-67
2021/07/26 04:17:40;;;;;;;4.07;2.90;;;;;;;;;;5095908;28;20233;-65
2021/07/26 04:20:08;;;;;;;6.87;2.70;;;;;;;;;;5098386;28;20220;-65
2021/07/26 04:22:37;;;;;;;5.63;3.00;;;;;;;;;;5096019;28;20227;-64
2021/07/26 04:25:05;;;;;;;3.40;2.97;;;;;;;;;;5081539;28;20198;-64
2021/07/26 04:27:36;;;;;;;3.70;2.90;;;;;;;;;;5099047;28;20214;-66
2021/07/26 04:30:04;;;;;;;3.33;3.03;;;;;;;;;;5097749;28;20282;-64
2021/07/26 04:32:40;;;;;;;3.87;3.43;;;;;;;;;;5091720;28;20245;-65
2021/07/26 04:35:09;;;;;;;3.57;3.10;;;;;;;;;;5097692;28;20558;-67
2021/07/26 04:37:37;;;;;;;5.20;3.23;;;;;;;;;;5097062;28;20197;-64
2021/07/26 04:40:08;;;;;;;4.83;3.63;;;;;;;;;;5097108;28;20267;-67
2021/07/26 04:42:38;;;;;;;139.20;85.03;;;;;;;;;;5092161;28;20218;-71
2021/07/26 04:45:07;;;;;;;12.13;7.37;;;;;;;;;;5083769;28;20578;-65
2021/07/26 04:47:35;;;;;;;3.97;3.37;;;;;;;;;;5091648;28;20285;-66
2021/07/26 04:50:04;;;;;;;4.47;3.23;;;;;;;;;;5092391;28;20209;-66
2021/07/26 04:52:32;;;;;;;6.70;3.40;;;;;;;;;;5096694;28;20226;-66
2021/07/26 04:55:00;;;;;;;6.87;3.83;;;;;;;;;;5098591;28;20205;-66
2021/07/26 04:57:28;;;;;;;4.50;3.60;;;;;;;;;;5096736;28;20232;-65
2021/07/26 04:59:58;;;;;;;6.03;3.70;;;;;;;;;;5098572;28;20205;-66
2021/07/26 05:02:26;;;;;;;7.53;4.60;;;;;;;;;;5095537;28;20223;-66
2021/07/26 05:04:55;;;;;;;4.57;3.93;;;;;;;;;;5095812;28;20232;-66
2021/07/26 05:07:23;;;;;;;5.23;3.50;;;;;;;;;;5097412;28;20417;-65
2021/07/26 05:09:51;;;;;;;4.83;3.70;;;;;;;;;;5097186;28;20203;-65
2021/07/26 05:12:19;;;;;;;5.33;3.43;;;;;;;;;;5086170;28;20230;-65
2021/07/26 05:14:48;;;;;;;5.93;3.57;;;;;;;;;;5098277;28;20206;-64
2021/07/26 05:17:23;;;;;;;5.07;3.73;;;;;;;;;;5085225;28;20703;-66
2021/07/26 05:19:50;;;;;;;29.17;16.73;;;;;;;;;;5082607;28;20210;-67
2021/07/26 05:22:18;;;;;;;6.93;4.43;;;;;;;;;;5088646;28;20227;-66
2021/07/26 05:24:47;;;;;;;6.53;3.90;;;;;;;;;;5093907;28;20716;-66
2021/07/26 05:27:15;;;;;;;4.40;3.80;;;;;;;;;;5090031;28;20650;-66
2021/07/26 05:29:43;;;;;;;6.60;3.50;;;;;;;;;;5097949;28;20210;-64
2021/07/26 05:32:11;;;;;;;6.83;3.93;;;;;;;;;;5094234;28;20314;-63
2021/07/26 05:34:42;;;;;;;6.70;5.10;;;;;;;;;;5088928;28;20201;-64
2021/07/26 05:37:11;;;;;;;4.53;4.03;;;;;;;;;;5097545;28;20831;-63
2021/07/26 05:39:39;;;;;;;7.90;4.50;;;;;;;;;;5096133;28;20209;-63
2021/07/26 05:42:10;;;;;;;10.17;3.50;;;;;;;;;;5095459;28;20237;-64
2021/07/26 05:44:38;;;;;;;6.37;3.63;;;;;;;;;;5097178;28;20205;-63
2021/07/26 05:47:06;;;;;;;5.93;3.67;;;;;;;;;;5094014;28;20193;-64
2021/07/26 05:49:35;;;;;;;7.27;3.87;;;;;;;;;;5089479;28;20572;-64
2021/07/26 05:52:04;;;;;;;5.47;3.90;;;;;;;;;;5082655;28;20239;-63
2021/07/26 05:54:32;;;;;;;5.73;3.23;;;;;;;;;;5099829;28;20196;-64
2021/07/26 05:57:04;;;;;;;5.27;3.47;;;;;;;;;;5105352;28;20217;-64
2021/07/26 05:59:32;;;;;;;6.50;4.13;;;;;;;;;;5097671;28;20202;-63
2021/07/26 06:02:00;;;;;;;5.83;3.53;;;;;;;;;;5098672;28;20745;-63
2021/07/26 06:04:28;;;;;;;8.60;4.33;;;;;;;;;;5098851;28;20199;-63
2021/07/26 06:06:57;;;;;;;4.53;3.43;;;;;;;;;;5099289;28;20648;-64
2021/07/26 06:09:27;;;;;;;6.33;3.33;;;;;;;;;;5104761;28;20196;-63
2021/07/26 06:11:55;;;;;;;5.57;4.10;;;;;;;;;;5102617;28;20220;-64
2021/07/26 06:14:24;;;;;;;7.77;3.73;;;;;;;;;;5103941;28;20205;-63
2021/07/26 06:16:53;;;;;;;7.10;3.97;;;;;;;;;;5103613;28;20221;-64
2021/07/26 06:19:21;;;;;;;7.33;3.70;;;;;;;;;;5100826;28;20197;-64
2021/07/26 06:21:51;;;;;;;7.27;3.67;;;;;;;;;;5100077;28;20320;-64
2021/07/26 06:24:20;;;;;;;4.83;3.70;;;;;;;;;;5105772;28;20284;-63
2021/07/26 06:26:52;;;;;;;6.87;3.30;;;;;;;;;;5102104;28;20200;-63
2021/07/26 06:29:20;;;;;;;4.77;3.30;;;;;;;;;;5100840;28;20728;-64
2021/07/26 06:31:48;;;;;;;5.27;3.80;;;;;;;;;;5105445;28;20299;-63
2021/07/26 06:34:16;;;;;;;9.50;5.63;;;;;;;;;;5104044;28;20208;-64
2021/07/26 06:36:44;;;;;;;5.57;3.67;;;;;;;;;;5090349;28;20644;-63
2021/07/26 06:39:13;;;;;;;6.57;3.97;;;;;;;;;;5100444;28;20215;-63
2021/07/26 06:41:41;;;;;;;6.60;3.73;;;;;;;;;;5092501;28;20245;-63
2021/07/26 06:44:10;;;;;;;6.53;3.37;;;;;;;;;;5094629;28;20665;-63
2021/07/26 06:46:39;;;;;;;10.57;3.90;;;;;;;;;;5088885;28;20276;-64
2021/07/26 06:49:07;;;;;;;53.07;41.33;;;;;;;;;;5104125;28;20205;-64
2021/07/26 06:51:38;;;;;;;7.63;5.30;;;;;;;;;;5101630;28;20230;-64
2021/07/26 06:54:06;;;;;;;4.70;3.70;;;;;;;;;;5103044;28;20201;-63
2021/07/26 06:56:34;;;;;;;4.30;3.37;;;;;;;;;;5103932;28;20221;-64
2021/07/26 06:59:02;;;;;;;5.57;3.87;;;;;;;;;;5102600;28;20208;-64
2021/07/26 07:01:31;;;;;;;4.40;4.00;;;;;;;;;;5101898;28;20243;-63
2021/07/26 07:03:59;;;;;;;6.23;3.90;;;;;;;;;;5100166;28;20198;-63
2021/07/26 07:06:27;;;;;;;5.60;3.73;;;;;;;;;;5103532;28;20205;-63
2021/07/26 07:08:55;;;;;;;5.63;4.50;;;;;;;;;;5100658;28;20210;-63
2021/07/26 07:11:24;;;;;;;5.13;3.50;;;;;;;;;;5095283;28;20307;-63
2021/07/26 07:13:54;;;;;;;6.20;3.60;;;;;;;;;;5096299;28;20650;-62
2021/07/26 07:16:22;;;;;;;6.43;4.03;;;;;;;;;;5100254;28;20207;-62
2021/07/26 07:18:52;;;;;;;6.80;4.10;;;;;;;;;;5085998;28;20286;-63
2021/07/26 07:21:21;;;;;;;5.33;3.47;;;;;;;;;;5100520;28;20233;-63
2021/07/26 07:23:49;;;;;;;4.90;3.40;;;;;;;;;;5086048;28;20212;-64
2021/07/26 07:26:17;;;;;;;7.20;4.00;;;;;;;;;;5097811;28;20211;-63
2021/07/26 07:28:45;;;;;;;5.70;3.60;;;;;;;;;;5093560;28;20193;-64
2021/07/26 07:31:17;;;;;;;7.97;4.13;;;;;;;;;;5080636;28;20576;-63
2021/07/26 07:33:45;;;;;;;6.83;4.17;;;;;;;;;;5097009;28;20201;-63
2021/07/26 07:36:14;;;;;;;8.43;4.63;;;;;;;;;;5096035;28;20577;-62
2021/07/26 07:38:42;;;;;;;8.03;4.50;;;;;;;;;;5095442;28;20219;-63
2021/07/26 07:41:10;;;;;;;6.07;4.40;;;;;;;;;;5088408;28;20237;-63
2021/07/26 07:43:38;;;;;;;8.57;3.90;;;;;;;;;;5101848;28;20203;-63
2021/07/26 07:46:06;;;;;;;3.80;3.37;;;;;;;;;;5106149;28;20208;-64
2021/07/26 07:48:34;;;;;;;7.30;4.10;;;;;;;;;;5108302;28;20199;-64
2021/07/26 07:51:05;;;;;;;5.97;4.47;;;;;;;;;;5106272;28;20200;-64
2021/07/26 07:53:35;;;;;;;4.20;3.77;;;;;;;;;;5105827;28;20282;-64
2021/07/26 07:56:03;;;;;;;7.23;4.50;;;;;;;;;;5108303;28;20663;-64
2021/07/26 07:58:31;;;;;;;6.37;4.13;;;;;;;;;;5101997;28;20217;-64
2021/07/26 08:00:59;;;;;;;6.97;4.93;;;;;;;;;;5088932;28;20202;-63
2021/07/26 08:03:28;;;;;;;6.47;3.77;;;;;;;;;;5091951;28;20198;-63
2021/07/26 08:05:59;;;;;;;6.33;4.03;;;;;;;;;;5105819;28;20317;-63
2021/07/26 08:08:27;;;;;;;4.53;3.57;;;;;;;;;;5105800;28;20199;-63
2021/07/26 08:10:56;;;;;;;5.13;3.60;;;;;;;;;;5106118;28;20680;-64
2021/07/26 08:13:25;;;;;;;7.30;3.70;;;;;;;;;;5088272;28;20214;-64
2021/07/26 08:15:53;;;;;;;8.70;4.40;;;;;;;;;;5090552;28;20204;-64
2021/07/26 08:18:22;;;;;;;6.17;3.67;;;;;;;;;;5108289;28;20254;-64
2021/07/26 08:20:50;;;;;;;6.43;4.17;;;;;;;;;;5105558;28;20208;-64
2021/07/26 08:23:18;;;;;;;5.83;3.90;;;;;;;;;;5086781;28;20221;-67
2021/07/26 08:25:46;;;;;;;10.03;4.47;;;;;;;;;;5099759;28;20264;-64
2021/07/26 08:28:15;;;;;;;7.17;4.07;;;;;;;;;;5088146;28;20571;-63
2021/07/26 08:30:43;;;;;;;7.70;4.20;;;;;;;;;;5086930;28;20197;-64
2021/07/26 08:33:11;;;;;;;5.37;4.03;;;;;;;;;;5086577;28;20224;-64
2021/07/26 08:35:40;;;;;;;6.53;4.33;;;;;;;;;;5089622;28;20284;-63
2021/07/26 08:38:08;;;;;;;9.80;4.37;;;;;;;;;;5083894;28;20228;-64
2021/07/26 08:40:36;;;;;;;9.47;4.03;;;;;;;;;;5098576;28;20577;-64
2021/07/26 08:43:07;;;;;;;9.30;4.73;;;;;;;;;;5100992;28;20226;-67
2021/07/26 08:45:37;;;;;;;7.07;4.00;;;;;;;;;;5103019;28;20236;-63
2021/07/26 08:48:06;;;;;;;6.40;4.53;;;;;;;;;;5097837;28;20203;-64
2021/07/26 08:50:34;;;;;;;7.43;4.47;;;;;;;;;;5098494;28;20636;-63
2021/07/26 08:53:04;;;;;;;9.90;3.87;;;;;;;;;;5091374;28;20260;-64
2021/07/26 08:55:34;;;;;;;8.13;4.20;;;;;;;;;;5098765;28;20217;-63
2021/07/26 08:58:03;;;;;;;7.67;3.60;;;;;;;;;;5097225;28;20227;-64
2021/07/26 09:00:31;;;;;;;5.33;4.13;;;;;;;;;;5098330;28;20211;-64
2021/07/26 09:03:02;;;;;;;6.13;3.87;;;;;;;;;;5084113;28;20343;-64
2021/07/26 09:05:30;;;;;;;7.77;4.07;;;;;;;;;;5109581;28;20225;-63
2021/07/26 09:08:00;;;;;;;4.90;3.70;;;;;;;;;;5093956;28;20278;-63
2021/07/26 09:10:28;;;;;;;7.90;3.90;;;;;;;;;;5096765;28;20241;-63
2021/07/26 09:12:57;;;;;;;5.73;4.20;;;;;;;;;;5095061;28;20595;-63
2021/07/26 09:15:27;;;;;;;8.23;4.13;;;;;;;;;;5086902;28;20237;-63
2021/07/26 09:17:55;;;;;;;7.30;5.13;;;;;;;;;;5096652;28;20230;-63
2021/07/26 09:20:28;;;;;;;5.17;3.77;;;;;;;;;;5097443;28;20210;-63
2021/07/26 09:22:57;;;;;;;6.83;4.03;;;;;;;;;;5097044;28;20313;-63
2021/07/26 09:25:26;;;;;;;6.00;3.80;;;;;;;;;;5098087;28;20212;-63
2021/07/26 09:28:14;;;;;;;6.73;3.50;;;;;;;;;;5092737;28;20197;-63
2021/07/26 09:30:44;;;;;;;7.63;4.20;;;;;;;;;;5094317;28;20201;-64
2021/07/26 09:33:16;;;;;;;5.57;4.60;;;;;;;;;;5095288;28;20226;-63
2021/07/26 09:35:46;;;;;;;7.37;3.97;;;;;;;;;;5087413;28;20259;-63
2021/07/26 09:38:16;;;;;;;7.43;3.70;;;;;;;;;;5094238;28;20675;-63
2021/07/26 09:40:46;;;;;;;6.60;3.57;;;;;;;;;;5090397;28;20738;-63
2021/07/26 09:43:17;;;;;;;6.17;3.43;;;;;;;;;;5089575;28;20221;-63
2021/07/26 09:45:45;;;;;;;7.43;3.70;;;;;;;;;;5089814;28;20208;-63
2021/07/26 09:48:14;;;;;;;6.30;4.37;;;;;;;;;;5096493;28;20544;-63
2021/07/26 09:50:43;;;;;;;5.37;3.70;;;;;;;;;;5097852;28;20581;-63
2021/07/26 09:53:13;;;;;;;6.40;3.63;;;;;;;;;;5096711;28;20718;-63
2021/07/26 09:55:42;;;;;;;6.30;3.90;;;;;;;;;;5092805;28;20226;-63
2021/07/26 09:58:11;;;;;;;7.90;3.90;;;;;;;;;;5099105;28;20223;-63
2021/07/26 10:00:40;;;;;;;6.60;3.67;;;;;;;;;;5085035;28;20284;-64
2021/07/26 10:03:09;;;;;;;7.10;4.20;;;;;;;;;;5083743;28;20268;-63
2021/07/26 10:05:39;;;;;;;6.40;4.60;;;;;;;;;;5087205;28;20258;-63
2021/07/26 10:08:07;;;;;;;5.03;4.53;;;;;;;;;;5085689;28;20291;-63
2021/07/26 10:10:37;;;;;;;6.90;4.13;;;;;;;;;;5096078;28;20290;-64
2021/07/26 10:13:07;;;;;;;5.10;3.57;;;;;;;;;;5096133;28;20256;-64
2021/07/26 10:15:35;;;;;;;7.63;4.30;;;;;;;;;;5083866;28;20268;-63
2021/07/26 10:18:03;;;;;;;5.97;4.30;;;;;;;;;;5096541;28;20204;-63
2021/07/26 10:20:32;;;;;;;7.67;4.70;;;;;;;;;;5097397;28;20214;-63
2021/07/26 10:23:03;;;;;;;9.07;4.27;;;;;;;;;;5096437;28;20301;-63
2021/07/26 10:25:33;;;;;;;6.17;4.40;;;;;;;;;;5081375;28;20198;-63
2021/07/26 10:28:04;;;;;;;8.43;4.80;;;;;;;;;;5090119;28;20210;-63
2021/07/26 10:30:33;;;;;;;10.17;4.90;;;;;;;;;;5095572;28;20284;-64
2021/07/26 10:33:02;;;;;;;7.20;4.40;;;;;;;;;;5096999;28;20236;-64
2021/07/26 10:35:37;;;;;;;8.40;4.17;;;;;;;;;;5095894;28;20205;-64
2021/07/26 10:38:06;;;;;;;5.57;4.40;;;;;;;;;;5088014;28;20281;-64
2021/07/26 10:40:37;;;;;;;6.63;3.77;;;;;;;;;;5086026;28;20238;-64
2021/07/26 10:43:07;;;;;;;4.27;3.87;;;;;;;;;;5101468;28;20709;-63
2021/07/26 10:46:01;;;;;;;5.83;3.90;;;;;;;;;;5098996;28;20203;-64
2021/07/26 10:48:35;;;;;;;4.60;3.90;;;;;;;;;;5089042;28;20582;-63
2021/07/26 10:51:23;;;;;;;5.50;3.60;;;;;;;;;;5092529;28;20201;-63
2021/07/26 10:54:00;;;;;;;4.63;4.17;;;;;;;;;;5083807;28;20211;-63
2021/07/26 10:56:28;;;;;;;5.70;3.70;;;;;;;;;;5092621;28;20207;-64
2021/07/26 10:59:00;;;;;;;4.97;3.57;;;;;;;;;;5082530;28;20221;-63
2021/07/26 11:01:35;;;;;;;7.00;3.50;;;;;;;;;;5100553;28;20288;-63
2021/07/26 11:04:03;;;;;;;8.60;4.40;;;;;;;;;;5098714;28;20196;-63
2021/07/26 11:06:50;;;;;;;5.00;3.70;;;;;;;;;;5098805;28;20205;-63
2021/07/26 11:09:36;;;;;;;6.97;3.90;;;;;;;;;;5079642;28;20195;-63
2021/07/26 11:12:05;;;;;;;6.23;3.73;;;;;;;;;;5092222;28;20695;-63
2021/07/26 11:14:34;;;;;;;4.77;3.57;;;;;;;;;;5092432;28;20680;-63
2021/07/26 11:17:04;;;;;;;4.43;3.83;;;;;;;;;;5084385;28;20225;-64
2021/07/26 11:19:36;;;;;;;5.27;3.83;;;;;;;;;;5104633;28;20228;-65
2021/07/26 11:22:05;;;;;;;7.57;3.60;;;;;;;;;;5102207;28;20299;-64
2021/07/26 11:24:45;;;;;;;7.87;5.07;;;;;;;;;;5121086;28;20205;-65
2021/07/26 11:27:14;;;;;;;5.83;3.23;;;;;;;;;;5101314;28;20212;-64
2021/07/26 11:29:45;;;;;;;12.43;4.50;;;;;;;;;;5101031;28;20265;-65
2021/07/26 11:32:20;;;;;;;7.03;4.07;;;;;;;;;;5100084;28;20236;-64
2021/07/26 11:34:53;;;;;;;5.70;3.80;;;;;;;;;;5111083;28;20287;-64
2021/07/26 11:37:29;;;;;;;8.67;3.60;;;;;;;;;;5101497;28;20645;-64
2021/07/26 11:39:58;;;;;;;6.37;3.77;;;;;;;;;;5100042;28;20220;-63
2021/07/26 11:42:28;;;;;;;17.43;4.23;;;;;;;;;;5100458;28;20256;-64
2021/07/26 11:44:59;;;;;;;6.20;4.40;;;;;;;;;;5098902;28;20205;-64
2021/07/26 11:47:31;;;;;;;5.27;3.57;;;;;;;;;;5095281;28;20296;-65
2021/07/26 11:49:59;;;;;;;6.93;4.03;;;;;;;;;;5099763;28;20232;-64
2021/07/26 11:52:27;;;;;;;5.20;3.60;;;;;;;;;;5099660;28;20229;-64
2021/07/26 11:54:55;;;;;;;6.03;3.43;;;;;;;;;;5087924;28;20213;-64
2021/07/26 11:57:23;;;;;;;4.33;3.50;;;;;;;;;;5099675;28;20213;-65
2021/07/26 11:59:52;;;;;;;6.07;3.20;;;;;;;;;;5099827;28;20226;-64
2021/07/26 12:02:26;;;;;;;5.90;3.50;;;;;;;;;;5099230;28;20226;-64
2021/07/26 12:04:55;;;;;;;5.93;3.97;;;;;;;;;;5099618;28;20229;-66
2021/07/26 12:07:39;;;;;;;5.53;3.77;;;;;;;;;;5108905;27;20233;-66
2021/07/26 12:10:07;;;;;;;8.50;3.83;;;;;;;;;;5104790;28;20228;-70
2021/07/26 12:12:39;;;;;;;6.07;4.03;;;;;;;;;;5107871;28;20218;-70
2021/07/26 12:15:22;;;;;;;7.33;3.63;;;;;;;;;;5102016;28;20276;-73
2021/07/26 12:18:02;;;;;;;5.67;3.80;;;;;;;;;;5105794;28;20207;-73
2021/07/26 12:20:31;;;;;;;6.30;4.60;;;;;;;;;;5108299;28;20228;-74
2021/07/26 12:22:59;;;;;;;7.23;3.67;;;;;;;;;;5107445;28;20220;-74
2021/07/26 12:25:27;;;;;;;9.43;3.70;;;;;;;;;;5108472;27;20200;-75
2021/07/26 12:27:56;;;;;;;5.53;3.60;;;;;;;;;;5105993;28;20563;-70
2021/07/26 12:30:34;;;;;;;6.40;3.97;;;;;;;;;;5101736;28;20198;-71
2021/07/26 12:33:04;;;;;;;6.30;3.83;;;;;;;;;;5109746;28;20248;-71
2021/07/26 12:35:33;;;;;;;6.83;3.90;;;;;;;;;;5106631;28;20789;-70
2021/07/26 12:38:02;;;;;;;7.33;3.60;;;;;;;;;;5119707;28;20245;-71
2021/07/26 12:40:30;;;;;;;7.97;4.30;;;;;;;;;;5115615;28;20561;-71
2021/07/26 12:43:04;;;;;;;5.40;4.07;;;;;;;;;;5108134;28;20283;-71
2021/07/26 12:45:32;;;;;;;5.87;4.00;;;;;;;;;;5104896;28;20202;-70
2021/07/26 12:48:12;;;;;;;6.23;3.80;;;;;;;;;;5100977;28;20269;-68
2021/07/26 12:50:40;;;;;;;5.83;3.60;;;;;;;;;;5105349;28;20191;-71
2021/07/26 12:53:08;;;;;;;7.17;3.33;;;;;;;;;;5104100;28;20229;-71
2021/07/26 12:55:36;;;;;;;8.33;4.60;;;;;;;;;;5104538;28;20652;-64
2021/07/26 12:58:04;;;;;;;5.77;3.33;;;;;;;;;;5098649;28;20199;-63
2021/07/26 13:00:33;;;;;;;5.20;3.40;;;;;;;;;;5101871;28;20224;-65
2021/07/26 13:03:01;;;;;;;4.20;3.23;;;;;;;;;;5105295;28;20218;-66
2021/07/26 13:05:30;;;;;;;7.50;4.13;;;;;;;;;;5100805;28;20308;-65
2021/07/26 13:07:58;;;;;;;4.20;3.70;;;;;;;;;;5097424;28;20293;-65
2021/07/26 13:10:26;;;;;;;4.90;3.33;;;;;;;;;;5098010;28;20208;-65
2021/07/26 13:12:54;;;;;;;5.07;4.17;;;;;;;;;;5096790;28;20225;-65
2021/07/26 13:15:22;;;;;;;9.07;4.23;;;;;;;;;;5094855;28;20211;-63
2021/07/26 13:17:50;;;;;;;5.03;3.70;;;;;;;;;;5080915;28;20216;-64
2021/07/26 13:20:18;;;;;;;6.90;3.63;;;;;;;;;;5097643;28;20219;-65
2021/07/26 13:22:47;;;;;;;5.00;3.37;;;;;;;;;;5098249;28;20654;-63
2021/07/26 13:25:15;;;;;;;6.40;3.90;;;;;;;;;;5097437;28;20242;-63
2021/07/26 13:27:43;;;;;;;7.40;3.53;;;;;;;;;;5088452;28;20210;-63
2021/07/26 13:30:11;;;;;;;5.93;4.47;;;;;;;;;;5095985;28;20635;-64
2021/07/26 13:32:39;;;;;;;4.53;3.80;;;;;;;;;;5097862;28;20227;-64
2021/07/26 13:35:08;;;;;;;5.40;3.70;;;;;;;;;;5082509;28;20663;-65
2021/07/26 13:37:36;;;;;;;5.17;3.30;;;;;;;;;;5095526;28;20562;-64
2021/07/26 13:40:06;;;;;;;7.50;3.90;;;;;;;;;;5083691;28;20242;-63
2021/07/26 13:42:34;;;;;;;4.40;3.27;;;;;;;;;;5097706;28;20599;-63
2021/07/26 13:45:02;;;;;;;6.23;3.47;;;;;;;;;;5096911;28;20208;-65
2021/07/26 13:47:30;;;;;;;6.20;3.70;;;;;;;;;;5083297;28;20224;-65
2021/07/26 13:49:58;;;;;;;6.90;4.13;;;;;;;;;;5095428;28;20731;-65
2021/07/26 13:52:26;;;;;;;5.90;3.60;;;;;;;;;;5080224;28;20777;-66
2021/07/26 13:54:55;;;;;;;5.37;3.67;;;;;;;;;;5094544;28;20205;-65
2021/07/26 13:57:24;;;;;;;5.20;4.00;;;;;;;;;;5086336;28;20556;-66
2021/07/26 13:59:52;;;;;;;5.10;3.40;;;;;;;;;;5085232;28;20209;-67
2021/07/26 14:02:20;;;;;;;7.57;3.73;;;;;;;;;;5095848;28;20242;-64
2021/07/26 14:04:49;;;;;;;4.90;3.60;;;;;;;;;;5094100;28;20200;-64
2021/07/26 14:07:18;;;;;;;5.37;3.43;;;;;;;;;;5089130;28;20205;-63
2021/07/26 14:09:46;;;;;;;4.90;4.00;;;;;;;;;;5098774;28;20199;-63
2021/07/26 14:12:14;;;;;;;6.93;3.93;;;;;;;;;;5097122;28;20223;-62
2021/07/26 14:14:43;;;;;;;4.20;3.70;;;;;;;;;;5097654;28;20210;-62
2021/07/26 14:17:11;;;;;;;6.50;3.90;;;;;;;;;;5095123;28;20551;-62
2021/07/26 14:19:54;;;;;;;4.80;3.10;;;;;;;;;;5099108;28;20255;-63
2021/07/26 14:22:22;;;;;;;3.87;3.40;;;;;;;;;;5102072;28;20231;-62
2021/07/26 14:24:51;;;;;;;5.20;3.37;;;;;;;;;;5100122;28;20657;-62
2021/07/26 14:27:19;;;;;;;5.13;4.00;;;;;;;;;;5096825;28;20212;-63
2021/07/26 14:29:48;;;;;;;7.00;3.53;;;;;;;;;;5099207;28;20202;-63
2021/07/26 14:32:16;;;;;;;4.97;3.60;;;;;;;;;;5099090;28;20281;-63
2021/07/26 14:34:44;;;;;;;4.60;3.20;;;;;;;;;;5088778;28;20236;-63
2021/07/26 14:37:12;;;;;;;6.83;3.50;;;;;;;;;;5088999;28;20208;-63
2021/07/26 14:39:41;;;;;;;7.77;3.93;;;;;;;;;;5094106;28;20201;-63
2021/07/26 14:42:08;;;;;;;11.03;3.57;;;;;;;;;;5087298;28;20233;-65
2021/07/26 14:44:36;;;;;;;5.53;3.83;;;;;;;;;;5101091;28;20214;-64
2021/07/26 14:47:06;;;;;;;6.70;4.73;;;;;;;;;;5086475;28;20218;-65
2021/07/26 14:49:36;;;;;;;7.27;3.97;;;;;;;;;;5109538;28;20204;-64
2021/07/26 14:52:04;;;;;;;5.57;3.87;;;;;;;;;;5103716;28;20223;-64
2021/07/26 14:54:32;;;;;;;5.45;4.38;;;;;;;;;;5091557;28;20236;-64
2021/07/26 14:57:00;;;;;;;6.87;4.83;;;;;;;;;;5090381;28;20204;-66